Time;durP1;ratioP1;P1;durP2;ratioP2;P2;SDS_P1;SDS_P2;PMS_P1;PMS_P2;Temp;Humidity;BMP_temperature;BMP_pressure;BME280_temperature;BME280_humidity;BME280_pressure;Samples;Min_cycle;Max_cycle;Signal;HPM_P1;HPM_P2
2022/05/27 00:01:30;;;;;;;6.72;2.33;;;13.30;99.90;;;;;;5070510;28;20043;-48
2022/05/27 00:03:59;;;;;;;7.03;2.10;;;13.40;99.90;;;;;;5070933;28;20121;-48
2022/05/27 00:06:26;;;;;;;8.77;2.45;;;13.10;99.90;;;;;;5070963;28;20487;-49
2022/05/27 00:08:52;;;;;;;10.38;3.10;;;13.10;99.90;;;;;;5070597;28;20048;-49
2022/05/27 00:11:19;;;;;;;7.90;2.35;;;13.70;99.90;;;;;;5069866;28;20449;-50
2022/05/27 00:13:45;;;;;;;7.63;2.17;;;13.70;99.90;;;;;;5066261;28;20071;-49
2022/05/27 00:16:12;;;;;;;7.78;2.80;;;13.50;99.90;;;;;;5062996;28;20028;-47
2022/05/27 00:18:38;;;;;;;9.75;2.80;;;13.20;99.90;;;;;;5060318;28;20033;-46
2022/05/27 00:21:03;;;;;;;9.90;3.00;;;13.60;99.90;;;;;;5069515;28;20047;-47
2022/05/27 00:23:30;;;;;;;8.10;3.08;;;13.60;99.90;;;;;;5070869;28;20040;-48
2022/05/27 00:25:56;;;;;;;8.88;2.85;;;13.30;99.90;;;;;;5070842;28;20117;-46
2022/05/27 00:28:22;;;;;;;10.55;3.00;;;13.60;99.90;;;;;;5070459;28;20499;-48
2022/05/27 00:30:48;;;;;;;7.82;3.30;;;13.10;99.90;;;;;;5070403;28;20087;-47
2022/05/27 00:33:13;;;;;;;9.02;2.97;;;13.60;99.90;;;;;;5052295;28;20123;-47
2022/05/27 00:35:39;;;;;;;10.77;3.65;;;13.40;99.90;;;;;;5070579;28;20513;-47
2022/05/27 00:38:06;;;;;;;8.93;3.20;;;13.50;99.90;;;;;;5052442;28;20040;-48
2022/05/27 00:40:41;;;;;;;10.32;3.60;;;13.10;99.90;;;;;;5070395;28;20036;-49
2022/05/27 00:43:07;;;;;;;10.15;3.38;;;13.60;99.90;;;;;;5070163;28;20543;-47
2022/05/27 00:45:36;;;;;;;7.72;3.80;;;13.10;99.90;;;;;;5052497;28;20033;-47
2022/05/27 00:48:06;;;;;;;10.98;3.40;;;13.50;99.90;;;;;;5070298;28;20083;-49
2022/05/27 00:50:36;;;;;;;10.05;3.45;;;13.50;99.90;;;;;;5070192;28;20040;-49
2022/05/27 00:53:04;;;;;;;13.15;3.60;;;13.00;99.90;;;;;;5070273;28;20037;-48
2022/05/27 00:55:33;;;;;;;12.88;3.50;;;13.50;99.90;;;;;;5070149;28;20036;-47
2022/05/27 00:58:09;;;;;;;12.13;3.42;;;13.50;99.90;;;;;;5070322;28;20383;-48
2022/05/27 01:00:36;;;;;;;16.00;4.82;;;13.00;99.90;;;;;;5070443;28;20040;-49
2022/05/27 01:03:03;;;;;;;13.93;4.00;;;13.00;99.90;;;;;;5070094;28;20063;-48
2022/05/27 01:05:29;;;;;;;15.25;4.35;;;13.30;99.90;;;;;;5070390;28;20094;-49
2022/05/27 01:08:06;;;;;;;13.00;4.32;;;13.30;99.90;;;;;;5070205;28;20071;-47
2022/05/27 01:10:51;;;;;;;16.02;4.30;;;13.10;99.90;;;;;;5070518;28;20040;-48
2022/05/27 01:13:51;;;;;;;12.18;4.10;;;13.00;99.90;;;;;;5070392;28;20054;-49
2022/05/27 01:16:36;;;;;;;11.95;3.88;;;13.30;99.90;;;;;;5070136;28;20055;-49
2022/05/27 01:22:41;;;;;;;12.88;4.22;;;13.50;99.90;;;;;;5073883;28;20032;-47
2022/05/27 01:25:13;;;;;;;15.07;4.60;;;13.60;99.90;;;;;;5055610;28;20037;-48
2022/05/27 01:28:00;;;;;;;11.50;3.92;;;13.60;99.90;;;;;;5073581;28;20457;-46
2022/05/27 01:30:46;;;;;;;13.30;4.07;;;13.20;99.90;;;;;;5073898;28;20032;-47
2022/05/27 01:33:40;;;;;;;14.00;4.47;;;13.30;99.90;;;;;;5073282;28;20086;-48
2022/05/27 01:36:43;;;;;;;13.27;3.95;;;13.40;99.90;;;;;;5034703;28;20040;-48
2022/05/27 01:39:33;;;;;;;17.02;4.22;;;13.10;99.90;;;;;;5073490;28;20131;-47
2022/05/27 01:42:15;;;;;;;14.85;4.03;;;13.40;99.90;;;;;;5055051;28;20119;-47
2022/05/27 01:44:55;;;;;;;16.00;3.75;;;13.50;99.90;;;;;;5073243;28;20050;-48
2022/05/27 01:47:36;;;;;;;13.27;3.58;;;13.50;99.90;;;;;;5073320;28;20483;-46
2022/05/27 01:50:48;;;;;;;16.08;3.55;;;13.20;99.90;;;;;;5073339;28;20047;-47
2022/05/27 01:53:23;;;;;;;17.02;3.63;;;13.10;99.90;;;;;;4971752;28;20039;-47
2022/05/27 01:56:15;;;;;;;17.90;4.00;;;13.40;99.90;;;;;;4971934;28;20074;-48
2022/05/27 01:58:50;;;;;;;12.38;3.70;;;13.00;99.90;;;;;;5037178;28;20403;-47
2022/05/27 02:01:20;;;;;;;13.88;3.63;;;13.30;99.90;;;;;;5072760;28;20471;-48
2022/05/27 02:03:53;;;;;;;17.23;3.60;;;12.90;99.90;;;;;;5072815;28;20060;-49
2022/05/27 02:06:27;;;;;;;14.85;3.78;;;13.10;99.90;;;;;;5073080;28;20582;-47
2022/05/27 02:09:00;;;;;;;10.55;2.85;;;13.10;99.90;;;;;;5073027;28;20054;-48
2022/05/27 02:11:27;;;;;;;18.02;3.67;;;13.00;99.90;;;;;;5072419;28;20055;-47
2022/05/27 02:14:14;;;;;;;15.32;3.33;;;13.10;99.90;;;;;;5072740;28;20386;-47
2022/05/27 02:16:52;;;;;;;14.48;3.25;;;12.70;99.90;;;;;;5072869;28;20387;-48
2022/05/27 02:19:39;;;;;;;18.05;4.03;;;12.90;99.90;;;;;;5072370;28;20079;-47
2022/05/27 02:22:34;;;;;;;15.27;3.10;;;13.10;99.90;;;;;;5072354;28;20124;-48
2022/05/27 02:25:08;;;;;;;16.00;3.75;;;12.70;99.90;;;;;;5063437;28;20098;-47
2022/05/27 02:27:38;;;;;;;17.05;3.42;;;13.10;99.90;;;;;;5072270;28;20075;-48
2022/05/27 02:30:07;;;;;;;11.05;3.20;;;13.00;99.90;;;;;;5072388;28;20048;-47
2022/05/27 02:35:07;;;;;;;12.68;3.55;;;12.60;99.90;;;;;;5071623;28;20058;-48
2022/05/27 02:35:41;;;;;;;14.02;3.10;;;12.60;99.90;;;;;;5072430;28;20040;-47
2022/05/27 02:38:07;;;;;;;14.55;3.88;;;12.60;99.90;;;;;;5072097;28;20036;-48
2022/05/27 02:40:53;;;;;;;17.20;3.30;;;12.70;99.90;;;;;;5072057;28;20040;-47
2022/05/27 02:43:35;;;;;;;18.70;3.45;;;12.70;99.90;;;;;;5071827;28;20044;-47
2022/05/27 02:46:40;;;;;;;14.32;3.20;;;12.90;99.90;;;;;;5071813;28;20044;-47
2022/05/27 02:49:21;;;;;;;14.15;3.10;;;12.60;99.90;;;;;;4990241;28;20057;-48
2022/05/27 02:52:08;;;;;;;17.02;3.65;;;13.00;99.90;;;;;;5071623;28;20071;-48
2022/05/27 02:55:02;;;;;;;13.88;3.28;;;12.50;99.90;;;;;;5072195;28;20036;-47
2022/05/27 02:57:34;;;;;;;17.50;3.63;;;12.60;99.90;;;;;;5071674;28;20045;-47
2022/05/27 03:00:05;;;;;;;16.63;3.42;;;12.90;99.90;;;;;;5072006;28;20032;-49
2022/05/27 03:02:30;;;;;;;16.83;3.92;;;12.90;99.90;;;;;;5071075;28;20041;-47
2022/05/27 03:05:01;;;;;;;12.50;3.05;;;13.00;99.90;;;;;;5053745;28;20044;-49
2022/05/27 03:07:51;;;;;;;17.52;3.75;;;12.80;99.90;;;;;;5071745;28;20145;-48
2022/05/27 03:10:41;;;;;;;18.33;3.75;;;12.70;99.90;;;;;;5071797;28;20047;-48
2022/05/27 03:13:25;;;;;;;15.50;3.53;;;13.00;99.90;;;;;;5070987;28;20052;-47
2022/05/27 03:16:10;;;;;;;16.83;3.13;;;12.70;99.90;;;;;;5071359;28;20040;-47
2022/05/27 03:18:59;;;;;;;18.45;3.05;;;12.90;99.90;;;;;;5071709;28;20383;-47
2022/05/27 03:21:45;;;;;;;16.23;3.63;;;12.90;99.90;;;;;;5071290;28;20106;-47
2022/05/27 03:24:32;;;;;;;13.02;3.35;;;13.00;99.90;;;;;;5071407;28;20379;-50
2022/05/27 03:27:42;;;;;;;17.05;3.17;;;12.60;99.90;;;;;;5071469;28;20071;-48
2022/05/27 03:30:18;;;;;;;15.35;3.10;;;12.90;99.90;;;;;;5053371;28;20490;-47
2022/05/27 03:33:14;;;;;;;15.35;3.17;;;12.70;99.90;;;;;;5070535;28;20040;-48
2022/05/27 03:36:30;;;;;;;20.40;3.40;;;13.00;99.90;;;;;;5071535;28;20064;-47
2022/05/27 03:39:13;;;;;;;13.80;3.00;;;13.00;99.90;;;;;;5028568;28;20509;-47
2022/05/27 03:41:45;;;;;;;14.68;3.40;;;12.70;99.90;;;;;;5070366;28;20040;-48
2022/05/27 03:44:20;;;;;;;19.15;3.35;;;12.90;99.90;;;;;;5070784;28;20040;-47
2022/05/27 03:46:50;;;;;;;15.32;3.08;;;12.60;99.90;;;;;;5070658;28;20127;-48
2022/05/27 03:49:16;;;;;;;18.70;3.30;;;12.60;99.90;;;;;;5070941;28;20525;-47
2022/05/27 03:52:09;;;;;;;21.60;3.50;;;12.70;99.90;;;;;;5052576;28;20048;-47
2022/05/27 03:54:35;;;;;;;13.87;3.40;;;12.40;99.90;;;;;;5067954;28;20049;-48
2022/05/27 03:57:01;;;;;;;14.57;3.22;;;12.60;99.90;;;;;;5053061;28;20032;-49
2022/05/27 03:59:27;;;;;;;19.05;3.75;;;12.70;99.90;;;;;;5070681;28;20036;-47
2022/05/27 04:01:55;;;;;;;15.48;3.70;;;12.70;99.90;;;;;;5070527;28;20046;-49
2022/05/27 04:04:24;;;;;;;18.80;4.05;;;12.70;99.90;;;;;;5070578;28;20044;-47
2022/05/27 04:06:50;;;;;;;21.92;3.88;;;12.60;99.90;;;;;;5053158;28;20068;-48
2022/05/27 04:09:17;;;;;;;13.88;3.33;;;12.50;99.90;;;;;;5070673;28;20040;-47
2022/05/27 04:11:44;;;;;;;16.40;3.42;;;12.60;99.90;;;;;;5070221;28;20044;-47
2022/05/27 04:14:10;;;;;;;16.10;3.33;;;12.40;99.90;;;;;;5052586;28;20032;-47
2022/05/27 04:16:36;;;;;;;17.30;3.00;;;12.40;99.90;;;;;;5070635;28;20561;-47
2022/05/27 04:19:02;;;;;;;17.80;3.88;;;12.40;99.90;;;;;;5070563;28;20033;-47
2022/05/27 04:21:28;;;;;;;16.70;3.38;;;12.60;99.90;;;;;;5070653;28;20029;-47
2022/05/27 04:23:54;;;;;;;19.67;3.45;;;12.40;99.90;;;;;;5070617;28;20047;-47
2022/05/27 04:26:20;;;;;;;17.20;3.33;;;12.30;99.90;;;;;;5070353;28;20545;-49
2022/05/27 04:28:46;;;;;;;18.65;3.65;;;12.70;99.90;;;;;;5070216;28;20072;-49
2022/05/27 04:31:11;;;;;;;10.52;2.70;;;12.60;99.90;;;;;;5070551;28;20036;-47
2022/05/27 04:33:37;;;;;;;19.17;2.60;;;12.50;99.90;;;;;;5069884;28;20530;-50
2022/05/27 04:36:04;;;;;;;13.07;2.47;;;12.50;99.90;;;;;;5070147;28;20036;-47
2022/05/27 04:38:30;;;;;;;13.57;2.35;;;12.70;99.90;;;;;;5070325;28;20182;-48
2022/05/27 04:40:55;;;;;;;13.82;3.15;;;12.70;99.90;;;;;;5070364;28;20476;-47
2022/05/27 04:43:21;;;;;;;19.55;3.17;;;12.50;99.90;;;;;;5070471;28;20044;-46
2022/05/27 04:45:47;;;;;;;13.05;2.47;;;12.60;99.90;;;;;;5070475;28;20489;-49
2022/05/27 04:48:14;;;;;;;17.80;3.00;;;12.50;99.90;;;;;;5070355;28;20428;-48
2022/05/27 04:50:40;;;;;;;16.08;2.78;;;12.60;99.90;;;;;;5070322;28;20414;-48
2022/05/27 04:53:06;;;;;;;17.15;2.70;;;12.70;99.90;;;;;;5070493;28;20374;-48
2022/05/27 04:55:34;;;;;;;15.55;2.75;;;12.80;99.90;;;;;;5073690;28;20490;-47
2022/05/27 04:58:00;;;;;;;14.13;3.03;;;12.70;99.90;;;;;;5056209;28;20041;-48
2022/05/27 05:00:38;;;;;;;17.42;3.25;;;12.60;99.90;;;;;;5073741;28;20045;-46
2022/05/27 05:03:05;;;;;;;11.80;2.70;;;12.70;99.90;;;;;;5055618;28;20080;-46
2022/05/27 05:05:33;;;;;;;15.05;3.35;;;12.60;99.90;;;;;;5073989;28;20105;-47
2022/05/27 05:08:28;;;;;;;14.20;2.90;;;12.60;99.90;;;;;;5074133;28;20048;-47
2022/05/27 05:10:54;;;;;;;17.90;3.03;;;12.70;99.90;;;;;;5073671;28;20293;-47
2022/05/27 05:13:19;;;;;;;14.05;2.90;;;12.70;99.90;;;;;;5055201;28;20167;-47
2022/05/27 05:15:45;;;;;;;13.73;2.58;;;12.80;99.90;;;;;;5073669;28;20079;-47
2022/05/27 05:18:11;;;;;;;14.48;2.88;;;12.70;99.90;;;;;;5073894;28;20044;-47
2022/05/27 05:20:37;;;;;;;17.63;3.38;;;12.60;99.90;;;;;;5073605;28;20093;-48
2022/05/27 05:23:03;;;;;;;13.55;2.83;;;12.80;99.90;;;;;;5073692;28;20115;-47
2022/05/27 05:25:29;;;;;;;15.65;3.10;;;13.00;99.90;;;;;;5073608;28;20040;-51
2022/05/27 05:27:55;;;;;;;16.40;3.03;;;13.10;99.90;;;;;;5073882;28;20033;-49
2022/05/27 05:30:23;;;;;;;15.45;2.95;;;12.90;99.90;;;;;;5073377;28;20029;-52
2022/05/27 05:32:49;;;;;;;16.83;2.90;;;13.00;99.90;;;;;;5073087;28;20112;-51
2022/05/27 05:35:16;;;;;;;15.57;2.97;;;13.10;99.90;;;;;;5073403;28;20153;-48
2022/05/27 05:37:42;;;;;;;10.55;2.65;;;12.90;99.90;;;;;;5073654;28;20357;-48
2022/05/27 05:40:10;;;;;;;14.63;2.65;;;13.00;99.90;;;;;;5073185;28;20067;-48
2022/05/27 05:42:36;;;;;;;16.10;3.25;;;13.10;99.90;;;;;;5073290;28;20131;-47
2022/05/27 05:45:02;;;;;;;17.23;2.90;;;13.20;99.90;;;;;;5073486;28;20431;-47
2022/05/27 05:47:28;;;;;;;16.13;2.85;;;13.10;99.90;;;;;;5073175;28;20111;-49
2022/05/27 05:49:54;;;;;;;13.63;2.50;;;13.10;99.90;;;;;;5073175;28;20120;-47
2022/05/27 05:52:19;;;;;;;11.15;2.63;;;13.00;99.90;;;;;;5072824;28;20037;-47
2022/05/27 05:54:45;;;;;;;14.55;2.90;;;13.10;99.90;;;;;;5072707;28;20029;-47
2022/05/27 05:57:11;;;;;;;14.85;2.60;;;13.10;99.90;;;;;;5072770;28;20089;-46
2022/05/27 05:59:38;;;;;;;14.82;2.80;;;13.00;99.90;;;;;;5072702;28;20044;-51
2022/05/27 06:02:07;;;;;;;14.10;2.80;;;13.10;99.90;;;;;;5072687;28;20530;-49
2022/05/27 06:04:33;;;;;;;18.75;2.63;;;13.00;99.90;;;;;;5072425;28;20093;-48
2022/05/27 06:06:58;;;;;;;16.60;3.13;;;12.90;99.90;;;;;;5073078;28;20506;-49
2022/05/27 06:09:28;;;;;;;16.40;3.03;;;12.90;99.90;;;;;;5073066;28;20028;-49
2022/05/27 06:11:59;;;;;;;19.58;3.00;;;13.00;99.90;;;;;;5072430;28;20048;-48
2022/05/27 06:14:25;;;;;;;19.58;3.15;;;12.90;99.90;;;;;;5072645;28;20032;-48
2022/05/27 06:16:51;;;;;;;16.58;3.67;;;13.00;99.90;;;;;;5054651;28;20032;-49
2022/05/27 06:19:16;;;;;;;17.05;2.50;;;12.90;99.90;;;;;;5072623;28;20037;-49
2022/05/27 06:21:43;;;;;;;11.20;2.63;;;13.10;99.90;;;;;;5054603;28;20176;-50
2022/05/27 06:24:10;;;;;;;14.13;2.47;;;13.30;99.90;;;;;;5072680;28;20468;-49
2022/05/27 06:26:38;;;;;;;18.13;2.50;;;13.60;99.90;;;;;;5072140;28;20040;-48
2022/05/27 06:34:32;;;;;;;13.30;2.25;;;13.70;99.90;;;;;;5072223;28;20126;-51
2022/05/27 06:37:02;;;;;;;16.90;2.53;;;13.60;99.90;;;;;;5068748;28;20632;-47
2022/05/27 06:39:29;;;;;;;15.38;3.25;;;13.50;99.90;;;;;;5063625;28;20028;-47
2022/05/27 06:41:55;;;;;;;13.25;2.67;;;13.50;99.90;;;;;;5064386;28;20032;-48
2022/05/27 06:44:21;;;;;;;12.80;2.88;;;13.40;99.90;;;;;;5063221;28;20044;-47
2022/05/27 06:46:51;;;;;;;10.15;2.40;;;13.40;99.90;;;;;;5063232;28;20075;-48
2022/05/27 06:49:20;;;;;;;18.10;3.10;;;13.50;99.90;;;;;;5062845;28;20176;-46
2022/05/27 06:51:47;;;;;;;18.63;2.72;;;13.40;99.90;;;;;;5062799;28;20075;-47
2022/05/27 06:54:15;;;;;;;16.75;2.92;;;13.50;99.90;;;;;;5064647;28;20482;-47
2022/05/27 06:56:43;;;;;;;14.50;3.10;;;13.40;99.90;;;;;;5063829;28;20040;-49
2022/05/27 06:59:09;;;;;;;16.60;3.50;;;13.40;99.90;;;;;;5063075;28;20028;-47
2022/05/27 07:01:36;;;;;;;14.73;2.80;;;13.40;99.90;;;;;;5045221;28;20541;-47
2022/05/27 07:04:02;;;;;;;14.43;2.58;;;13.50;99.90;;;;;;5046301;28;20059;-47
2022/05/27 07:06:43;;;;;;;13.15;2.47;;;13.50;99.90;;;;;;5063789;28;20037;-48
2022/05/27 07:09:13;;;;;;;13.98;2.97;;;13.50;99.90;;;;;;5062721;28;20028;-46
2022/05/27 07:11:41;;;;;;;20.17;3.22;;;13.60;99.90;;;;;;5063284;28;20453;-48
2022/05/27 07:14:07;;;;;;;15.77;2.97;;;13.70;99.90;;;;;;5063595;28;20071;-46
2022/05/27 07:16:32;;;;;;;13.73;3.20;;;13.90;99.90;;;;;;5061542;28;20494;-48
2022/05/27 07:18:58;;;;;;;16.88;2.60;;;14.10;99.90;;;;;;5063548;28;20033;-47
2022/05/27 07:21:25;;;;;;;14.80;2.55;;;14.30;99.90;;;;;;5062854;28;20028;-48
2022/05/27 07:23:54;;;;;;;17.00;2.83;;;14.30;99.90;;;;;;5062405;28;20040;-48
2022/05/27 07:26:21;;;;;;;14.13;2.70;;;14.10;99.90;;;;;;5063167;28;20063;-50
2022/05/27 07:28:47;;;;;;;16.75;2.72;;;13.90;99.90;;;;;;5063124;28;20036;-50
2022/05/27 07:31:13;;;;;;;14.30;3.00;;;13.70;99.90;;;;;;5061705;28;20045;-47
2022/05/27 07:33:40;;;;;;;16.27;2.90;;;13.50;99.90;;;;;;5062944;28;20044;-50
2022/05/27 07:36:06;;;;;;;13.45;2.50;;;13.60;99.90;;;;;;5044043;28;20059;-50
2022/05/27 07:38:32;;;;;;;13.40;2.60;;;13.80;99.90;;;;;;5062375;28;20024;-47
2022/05/27 07:40:58;;;;;;;17.58;2.95;;;13.80;99.90;;;;;;5061658;28;20540;-51
2022/05/27 07:43:24;;;;;;;11.60;2.20;;;13.70;99.90;;;;;;5062722;28;20037;-55
2022/05/27 07:45:50;;;;;;;13.90;2.47;;;13.80;99.90;;;;;;5046209;28;20043;-48
2022/05/27 07:48:16;;;;;;;18.95;2.75;;;13.90;99.90;;;;;;5062299;28;20036;-50
2022/05/27 07:50:43;;;;;;;16.48;2.25;;;14.10;99.90;;;;;;5044135;28;20048;-52
2022/05/27 07:53:09;;;;;;;12.38;2.25;;;13.90;99.90;;;;;;5061630;28;20044;-49
2022/05/27 07:55:34;;;;;;;12.85;2.58;;;13.80;99.90;;;;;;5061574;28;20541;-51
2022/05/27 07:58:00;;;;;;;17.25;3.03;;;13.90;99.90;;;;;;5062525;28;20044;-48
2022/05/27 08:00:29;;;;;;;17.13;3.00;;;13.90;99.90;;;;;;5061887;28;20028;-49
2022/05/27 08:02:56;;;;;;;13.50;2.05;;;14.00;99.90;;;;;;5062742;28;20049;-53
2022/05/27 08:05:24;;;;;;;9.68;2.33;;;14.00;99.90;;;;;;5061947;28;20123;-51
2022/05/27 08:07:50;;;;;;;15.02;2.40;;;14.00;99.90;;;;;;5062500;28;20115;-53
2022/05/27 08:10:20;;;;;;;12.68;2.80;;;14.00;99.90;;;;;;5061819;28;20068;-50
2022/05/27 08:12:46;;;;;;;12.15;2.70;;;14.10;99.90;;;;;;5061364;28;20066;-47
2022/05/27 08:15:13;;;;;;;15.48;3.08;;;14.10;99.90;;;;;;5061991;28;20479;-49
2022/05/27 08:17:39;;;;;;;11.63;2.67;;;14.20;99.90;;;;;;5063170;28;20170;-48
2022/05/27 08:20:09;;;;;;;11.70;1.98;;;14.00;99.90;;;;;;5044336;28;20040;-50
2022/05/27 08:22:35;;;;;;;10.32;2.38;;;13.80;99.90;;;;;;5067664;28;20045;-50
2022/05/27 08:25:01;;;;;;;17.05;3.55;;;13.80;99.90;;;;;;5068733;28;20040;-48
2022/05/27 08:27:27;;;;;;;11.48;2.45;;;14.00;99.90;;;;;;5068712;28;20059;-47
2022/05/27 08:29:53;;;;;;;14.98;2.13;;;14.10;99.90;;;;;;5074703;28;20107;-49
2022/05/27 08:32:18;;;;;;;12.63;2.25;;;14.10;99.90;;;;;;5074406;28;20036;-47
2022/05/27 08:40:57;;;;;;;12.27;2.13;;;14.20;99.90;;;;;;5069278;28;20051;-49
2022/05/27 08:43:35;;;;;;;14.00;2.35;;;14.30;99.90;;;;;;5065564;28;20513;-51
2022/05/27 08:46:03;;;;;;;10.35;1.90;;;14.20;99.90;;;;;;5065623;28;20075;-52
2022/05/27 08:48:33;;;;;;;12.95;2.28;;;14.20;99.90;;;;;;5071130;28;20475;-52
2022/05/27 08:51:06;;;;;;;11.35;2.75;;;14.30;99.90;;;;;;5068992;28;20068;-51
2022/05/27 08:53:41;;;;;;;9.40;2.57;;;14.40;99.90;;;;;;5048691;28;20103;-53
2022/05/27 09:01:51;;;;;;;10.02;1.88;;;14.50;99.90;;;;;;5069441;28;20425;-48
2022/05/27 09:04:33;;;;;;;11.30;1.92;;;14.40;99.90;;;;;;5073874;28;20051;-49
2022/05/27 09:07:36;;;;;;;12.30;2.67;;;14.70;99.90;;;;;;5052597;28;20049;-49
2022/05/27 09:10:11;;;;;;;10.15;1.63;;;14.60;99.90;;;;;;5068752;28;20452;-50
2022/05/27 09:12:51;;;;;;;8.25;1.45;;;14.30;99.90;;;;;;5068799;28;20131;-49
2022/05/27 09:15:56;;;;;;;14.55;2.08;;;14.40;99.90;;;;;;5065706;28;20040;-51
2022/05/27 09:18:26;;;;;;;8.93;1.70;;;14.80;99.90;;;;;;5027338;28;20040;-48
2022/05/27 09:21:07;;;;;;;13.68;1.85;;;15.20;99.90;;;;;;5064000;28;20716;-48
2022/05/27 09:23:55;;;;;;;8.07;1.60;;;15.10;99.90;;;;;;5065845;28;20052;-49
2022/05/27 09:26:45;;;;;;;9.25;1.95;;;14.80;99.90;;;;;;5064067;28;20068;-47
2022/05/27 09:29:37;;;;;;;7.28;1.63;;;15.00;99.90;;;;;;5068426;28;20039;-47
2022/05/27 09:32:25;;;;;;;8.88;1.45;;;14.90;99.90;;;;;;5067370;28;20451;-52
2022/05/27 09:34:52;;;;;;;7.53;1.55;;;14.70;99.90;;;;;;5064060;28;20487;-51
2022/05/27 09:37:33;;;;;;;8.07;2.00;;;15.10;99.90;;;;;;5069521;28;20033;-49
2022/05/27 09:40:07;;;;;;;10.50;1.70;;;15.10;99.90;;;;;;5067862;28;20087;-53
2022/05/27 09:42:44;;;;;;;7.93;1.48;;;15.60;99.90;;;;;;5064662;28;20068;-51
2022/05/27 09:45:11;;;;;;;7.85;1.65;;;15.60;99.90;;;;;;5064169;28;20051;-50
2022/05/27 09:47:40;;;;;;;6.68;1.80;;;15.40;99.90;;;;;;5069090;28;20116;-50
2022/05/27 09:50:25;;;;;;;10.50;2.03;;;15.50;99.90;;;;;;5064793;28;20036;-51
2022/05/27 09:52:56;;;;;;;10.23;1.83;;;15.40;99.90;;;;;;5043170;28;20032;-52
2022/05/27 09:55:27;;;;;;;13.68;2.28;;;15.50;99.90;;;;;;5065584;28;20508;-54
2022/05/27 09:58:05;;;;;;;11.20;1.80;;;15.60;99.90;;;;;;5064921;28;20061;-49
2022/05/27 10:00:44;;;;;;;11.77;2.25;;;15.70;99.90;;;;;;5063660;28;20048;-53
2022/05/27 10:03:32;;;;;;;15.85;1.90;;;15.60;99.90;;;;;;5062915;28;20128;-52
2022/05/27 10:06:08;;;;;;;8.80;1.95;;;15.80;99.90;;;;;;5063528;28;20075;-52
2022/05/27 10:08:44;;;;;;;8.82;1.92;;;15.80;99.90;;;;;;5067426;28;20046;-49
2022/05/27 10:11:26;;;;;;;9.85;1.95;;;15.60;99.90;;;;;;5063017;28;20130;-47
2022/05/27 10:14:27;;;;;;;9.07;1.70;;;15.70;99.90;;;;;;5064989;28;20044;-49
2022/05/27 10:17:13;;;;;;;9.85;1.60;;;15.70;99.90;;;;;;5067379;28;20537;-51
2022/05/27 10:19:41;;;;;;;9.63;2.17;;;15.80;99.90;;;;;;5064688;28;20035;-49
2022/05/27 10:22:25;;;;;;;12.70;2.17;;;15.70;99.90;;;;;;5062233;28;20037;-50
2022/05/27 10:25:12;;;;;;;9.00;1.90;;;15.80;99.90;;;;;;5069159;28;20037;-50
2022/05/27 10:27:39;;;;;;;9.52;1.80;;;16.10;99.90;;;;;;5063145;28;20037;-49
2022/05/27 10:30:21;;;;;;;10.00;2.30;;;16.10;99.90;;;;;;5060971;28;20111;-48
2022/05/27 10:32:47;;;;;;;10.68;1.83;;;16.20;99.90;;;;;;5058639;28;20067;-50
2022/05/27 10:35:27;;;;;;;9.65;1.95;;;16.20;99.90;;;;;;5047384;28;20040;-50
2022/05/27 10:38:25;;;;;;;12.40;2.10;;;16.20;99.90;;;;;;5048460;28;20039;-48
2022/05/27 10:40:53;;;;;;;10.27;1.85;;;16.60;99.90;;;;;;5063403;28;20384;-48
2022/05/27 10:43:25;;;;;;;16.75;2.28;;;16.30;99.90;;;;;;5067356;28;20047;-50
2022/05/27 10:45:53;;;;;;;11.38;1.98;;;16.40;99.90;;;;;;5062815;28;20037;-48
2022/05/27 10:48:51;;;;;;;11.52;2.10;;;16.00;99.90;;;;;;5067894;28;20048;-49
2022/05/27 10:51:35;;;;;;;15.32;2.35;;;15.90;99.90;;;;;;5064446;28;20553;-49
2022/05/27 10:54:35;;;;;;;9.23;1.85;;;16.40;99.90;;;;;;5072146;28;20083;-50
2022/05/27 11:03:08;;;;;;;10.20;2.08;;;16.10;99.90;;;;;;5065544;28;20078;-49
2022/05/27 11:05:34;;;;;;;12.05;1.92;;;16.10;99.90;;;;;;5058460;28;20132;-50
2022/05/27 11:08:26;;;;;;;10.20;1.88;;;15.90;99.90;;;;;;5061941;28;20410;-51
2022/05/27 11:11:01;;;;;;;13.27;2.67;;;16.00;99.90;;;;;;5059168;28;20047;-50
2022/05/27 11:16:42;;;;;;;13.30;2.15;;;16.10;99.90;;;;;;5035591;28;20041;-52
2022/05/27 11:19:25;;;;;;;11.55;1.80;;;16.50;99.90;;;;;;5061852;28;20047;-50
2022/05/27 11:22:15;;;;;;;10.95;1.92;;;16.60;99.90;;;;;;5060377;28;20044;-49
2022/05/27 11:25:05;;;;;;;12.05;2.10;;;16.40;99.90;;;;;;5062064;28;20041;-51
2022/05/27 11:27:37;;;;;;;16.92;2.78;;;16.70;99.90;;;;;;5059952;28;20159;-50
2022/05/27 11:30:17;;;;;;;12.75;2.65;;;16.30;99.90;;;;;;5062826;28;20033;-49
2022/05/27 11:33:18;;;;;;;10.63;2.20;;;16.80;99.90;;;;;;5059384;28;20041;-52
2022/05/27 11:35:56;;;;;;;17.40;2.28;;;16.80;99.90;;;;;;5019755;28;20503;-48
2022/05/27 11:38:57;;;;;;;11.10;2.58;;;16.20;99.90;;;;;;5058627;28;20480;-47
2022/05/27 11:41:49;;;;;;;13.20;2.50;;;16.00;99.90;;;;;;4985113;28;20442;-48
2022/05/27 11:44:36;;;;;;;11.32;2.38;;;15.50;99.90;;;;;;5059495;28;20044;-49
2022/05/27 11:47:46;;;;;;;9.70;1.75;;;16.00;99.90;;;;;;5068680;28;20040;-50
2022/05/27 11:50:29;;;;;;;12.63;1.95;;;16.30;99.90;;;;;;5069517;28;20033;-48
2022/05/27 11:53:32;;;;;;;10.67;2.30;;;16.00;99.90;;;;;;5070624;28;20467;-47
2022/05/27 11:56:31;;;;;;;15.27;2.17;;;15.80;99.90;;;;;;5070839;28;20036;-48
2022/05/27 11:59:00;;;;;;;9.95;2.08;;;16.10;99.90;;;;;;5070787;28;20033;-50
2022/05/27 12:01:49;;;;;;;13.88;2.60;;;16.60;99.90;;;;;;5070795;28;20051;-49
2022/05/27 12:04:53;;;;;;;12.38;2.65;;;16.40;99.90;;;;;;5069953;28;20044;-51
2022/05/27 12:07:56;;;;;;;11.70;1.70;;;16.50;99.90;;;;;;5070729;28;20087;-49
2022/05/27 12:10:25;;;;;;;15.50;2.47;;;16.60;99.90;;;;;;5070616;28;20040;-51
2022/05/27 12:13:29;;;;;;;14.65;2.63;;;16.80;99.90;;;;;;5070214;28;20442;-49
2022/05/27 12:16:05;;;;;;;11.02;2.55;;;16.50;99.90;;;;;;4968585;28;20358;-48
2022/05/27 12:18:57;;;;;;;14.43;2.38;;;16.60;99.90;;;;;;5058856;28;20630;-50
2022/05/27 12:21:28;;;;;;;12.15;2.65;;;16.30;99.90;;;;;;5070647;28;20075;-50
2022/05/27 12:24:11;;;;;;;10.73;2.03;;;16.40;99.90;;;;;;5070671;28;20102;-48
2022/05/27 12:26:39;;;;;;;16.33;3.20;;;16.20;99.90;;;;;;5070788;28;20040;-49
2022/05/27 12:29:09;;;;;;;19.70;2.90;;;16.40;99.90;;;;;;5070226;28;20044;-48
2022/05/27 12:31:36;;;;;;;13.13;2.03;;;16.70;99.90;;;;;;5070551;28;20040;-48
2022/05/27 12:34:27;;;;;;;13.23;2.47;;;16.70;99.90;;;;;;5070246;28;20051;-50
2022/05/27 12:37:13;;;;;;;11.10;2.47;;;17.50;99.90;;;;;;5070117;28;20032;-49
2022/05/27 12:39:41;;;;;;;13.93;2.17;;;17.50;99.90;;;;;;5070627;28;20036;-49
2022/05/27 12:42:13;;;;;;;13.00;1.98;;;16.80;99.90;;;;;;5070665;28;20040;-51
2022/05/27 12:44:42;;;;;;;15.35;2.30;;;16.70;99.90;;;;;;5070128;28;20033;-50
2022/05/27 12:47:35;;;;;;;10.90;2.00;;;17.50;99.90;;;;;;5070523;28;20124;-48
2022/05/27 12:50:04;;;;;;;11.45;2.13;;;16.90;99.90;;;;;;5066239;28;20037;-51
2022/05/27 12:52:30;;;;;;;14.63;2.38;;;17.00;99.90;;;;;;5070267;28;20079;-50
2022/05/27 12:54:56;;;;;;;13.50;3.10;;;17.50;99.90;;;;;;5070579;28;20420;-50
2022/05/27 13:03:36;;;;;;;12.98;2.15;;;16.60;99.90;;;;;;5069919;28;20036;-49
2022/05/27 13:06:07;;;;;;;11.45;2.38;;;16.30;99.90;;;;;;5070211;28;20047;-51
2022/05/27 13:08:46;;;;;;;11.98;2.60;;;16.30;99.90;;;;;;5070040;28;20044;-47
2022/05/27 13:11:35;;;;;;;14.00;2.40;;;16.30;99.90;;;;;;5070149;28;20040;-53
2022/05/27 13:14:03;;;;;;;18.15;3.45;;;16.00;99.90;;;;;;5056623;28;20049;-52
2022/05/27 13:16:33;;;;;;;14.85;2.22;;;16.00;99.90;;;;;;5073540;28;20048;-52
2022/05/27 13:19:33;;;;;;;13.27;2.50;;;15.90;99.90;;;;;;5067376;28;20163;-51
2022/05/27 13:22:03;;;;;;;12.20;2.40;;;15.60;99.90;;;;;;5052880;28;20085;-50
2022/05/27 13:24:38;;;;;;;12.90;2.10;;;15.80;99.90;;;;;;5069210;28;20056;-50
2022/05/27 13:27:27;;;;;;;12.38;2.00;;;16.60;99.90;;;;;;5065007;28;20041;-51
2022/05/27 13:29:53;;;;;;;11.63;2.28;;;16.40;99.90;;;;;;5069969;28;20108;-48
2022/05/27 13:33:01;;;;;;;11.65;2.28;;;16.00;99.90;;;;;;5071395;28;20040;-50
2022/05/27 13:35:37;;;;;;;15.55;2.95;;;16.70;99.90;;;;;;5070773;28;20618;-50
2022/05/27 13:38:04;;;;;;;13.43;2.42;;;17.50;99.90;;;;;;5050499;28;20147;-51
2022/05/27 13:40:34;;;;;;;12.05;2.22;;;16.90;99.90;;;;;;5070755;28;20450;-48
2022/05/27 13:43:09;;;;;;;11.32;2.22;;;16.50;99.90;;;;;;5071243;28;20033;-50
2022/05/27 13:45:47;;;;;;;10.68;2.45;;;16.70;99.90;;;;;;5069712;28;20391;-47
2022/05/27 13:48:42;;;;;;;9.82;2.00;;;17.00;99.90;;;;;;5070031;28;20036;-48
2022/05/27 13:51:14;;;;;;;12.90;1.92;;;17.40;99.90;;;;;;5043995;28;20071;-50
2022/05/27 13:53:41;;;;;;;13.20;3.67;;;17.90;99.90;;;;;;5068449;28;20044;-49